• Join FlightAware (Why Join?)
  • Login
  • US Flag 
03:29AM EDT


 

Airport Tracker/Info


-or-


 

Live Flight TrackerFlight Track Log ✈ N234CE ✈ 12-Feb-2014 ✈ PACX / CXF - PAFA / FAI

Flight Track Log - Related Links

Times and Time Zones

All times are in EST time to prevent confusion due to time zone crossing. See the N234CE flight status page for this flight to view local times or setup timezone preferences in your user account.

Time Position Orientation Groundspeed Altitude Reporting Facility
EST Latitude Longitude Course Direction KTS MPH feet Rate Location/Type
08:05PM 67.0500 -150.3500 150° Southeast 150 173 8,100  Level Anchorage Center
08:06PM 67.0167 -150.3333 169° South 120 138 9,400 1,440 Climbing Anchorage Center
08:07PM 67.0000 -150.3000 142° Southeast 110 127 11,000 780 Climbing Anchorage Center
08:08PM 66.9667 -150.2500 150° Southeast 120 138 11,000  Level Anchorage Center
08:09PM 66.9333 -150.2000 150° Southeast 130 150 11,000  Level Anchorage Center
08:10PM 66.8833 -150.1500 159° South 120 138 11,000  Level Anchorage Center
08:11PM 66.8333 -150.0833 152° Southeast 190 219 11,000 -180 Level Anchorage Center
08:12PM 66.7833 -150.0333 158° South 190 219 10,700 -360 Descending Anchorage Center
08:13PM 66.7500 -149.9833 149° Southeast 180 207 10,300 -360 Descending Anchorage Center
08:14PM 66.7000 -149.9333 158° South 170 196 10,000 -300 Descending Anchorage Center
08:15PM 66.6667 -149.8667 142° Southeast 180 207 9,700 -300 Descending Anchorage Center
08:16PM 66.6167 -149.8167 158° South 190 219 9,500 -360 Descending Anchorage Center
08:17PM 66.5667 -149.7667 158° South 170 196 9,000 -300 Descending Anchorage Center
08:18PM 66.5167 -149.7167 158° South 180 207 9,000  Level Anchorage Center
08:19PM 66.4833 -149.6667 149° Southeast 180 207 9,000  Level Anchorage Center
08:20PM 66.4333 -149.6167 158° South 150 173 9,000  Level Anchorage Center
08:21PM 66.3833 -149.5833 165° South 190 219 9,000  Level Anchorage Center
08:22PM 66.3500 -149.5333 149° Southeast 160 184 9,000 -120 Level Anchorage Center
08:23PM 66.3167 -149.4833 149° Southeast 170 196 8,800 -360 Descending Anchorage Center
08:24PM 66.2667 -149.4333 158° South 170 196 8,300 -420 Descending Anchorage Center
08:25PM 66.2167 -149.3833 158° South 180 207 8,000 -300 Descending Anchorage Center
08:26PM 66.1833 -149.3333 149° Southeast 170 196 7,700 -420 Descending Anchorage Center
08:27PM 66.1333 -149.2833 158° South 180 207 7,200 -360 Descending Anchorage Center
08:28PM 66.0833 -149.2333 158° South 180 207 7,000 -120 Descending Anchorage Center
08:29PM 66.0333 -149.1833 158° South 170 196 7,000  Level Anchorage Center
08:30PM 66.0000 -149.1333 149° Southeast 170 196 7,000  Level Anchorage Center
08:31PM 65.9500 -149.0833 158° South 180 207 7,000 -60 Level Anchorage Center
08:32PM 65.9167 -149.0333 149° Southeast 170 196 6,900 -60 Descending Anchorage Center
08:33PM 65.8667 -148.9833 158° South 170 196 6,900  Level Anchorage Center
08:34PM 65.8167 -148.9500 165° South 170 196 6,900  Level Anchorage Center
08:35PM 65.7833 -148.9000 148° Southeast 170 196 6,900  Level Anchorage Center
08:36PM 65.7333 -148.8500 158° South 170 196 6,900  Level Anchorage Center
08:37PM 65.7000 -148.8000 148° Southeast 160 184 6,900  Level Anchorage Center
08:38PM 65.6500 -148.7500 158° South 170 196 6,900  Level Anchorage Center
08:39PM 65.6167 -148.7000 148° Southeast 170 196 6,900  Level Anchorage Center
08:40PM 65.5667 -148.6500 158° South 170 196 6,900  Level Anchorage Center
08:41PM 65.5333 -148.6000 148° Southeast 170 196 6,900 -120 Level Anchorage Center
08:42PM 65.4833 -148.5667 165° South 170 196 6,700 -300 Descending Anchorage Center
08:43PM 65.4500 -148.5167 148° Southeast 180 207 6,400 -300 Descending Anchorage Center
08:44PM 65.4000 -148.4667 157° South 170 196 6,100 -300 Descending Anchorage Center
08:45PM 65.3500 -148.4167 157° South 170 196 5,900 -300 Descending Anchorage Center
08:46PM 65.3167 -148.3667 148° Southeast 180 207 5,500 -420 Descending Anchorage Center